KAFF/AFF METAR and TAF weather

Enter ICAO airport designator
Station Type Date Time Source
KAFF METAR 2022/06/29 23:58 UTC NOAA

KAFF 292358Z 20008KT 10SM SCT130 SCT150 29/01 A3017 RMK AO2A SLP131 T02910007 10322 20291 57011 $


Station Type Date Time Source
KAFF Decoded METAR 2022/06/29 23:58 UTC NOAA

Air Force Academy, CO, United States (KAFF) 38-58N 104-49W 1999M
Jun 29, 2022 - 07:58 PM EDT / 2022.06.29 2358 UTC
Wind: from the SSW (200 degrees) at 9 MPH (8 KT):0
Visibility: 10 mile(s):0
Sky conditions: partly cloudy
Temperature: 84.4 F (29.1 C)
Dew Point: 33.3 F (0.7 C)
Relative Humidity: 15%
Pressure (altimeter): 30.17 in. Hg (1021 hPa)
Pressure tendency: 0.03 inches (1.1 hPa) lower than three hours ago
ob: KAFF 292358Z 20008KT 10SM SCT130 SCT150 29/01 A3017 RMK AO2A SLP131 T02910007 10322 20291 57011
cycle: 0

Station Type Date Time Source
KAFF TAF 2022/06/29 19:26 UTC NOAA

TAF COR KAFF 2919/0101 16012G18KT 9999 SCT140 SCT200 510002 520203 QNH3022INS WND 100V210
BECMG 2919/2920 16012G22KT 9999 BKN120 BKN200 520005 QNH3016INS SHRA OMTNS DRY MICROBURST CONDS EXIST
TEMPO 2920/3001 VRB25G45KT -SHRA VCTS BKN110CB BKN250
BECMG 3001/3002 16009KT 9999 VCTS BKN110CB BKN200 QNH3019INS
TEMPO 3002/3005 VRB25G35KT -TSRA BKN100CB
BECMG 3004/3005 35015G25KT 9999 NSW SCT120 SCT200 520009 QNH3022INS
BECMG 3007/3008 35012KT 9999 FEW100 FEW200 QNH3024INS
BECMG 3011/3012 35009KT 9999 FEW200 QNH3019INS
BECMG 3016/3017 01012KT 9999 FEW100 SCT250 QNH3017INS
BECMG 3018/3019 01012KT 9999 VCTS SCT100CB SCT250 QNH3015INS
TEMPO 3020/0101 VRB25G40KT -TSRA SCT050 BKN090CB BKN250 TX31/2921Z TN11/3012Z LAST NO
AMDS AFT 2921 NEXT 3011

Example: see airport list